KLBX

Texas Gulf Coast Regional Airport

Angleton/Lake Jackson, Texas, USA
METAR KLBX 171453Z AUTO 00000KT 4SM BR FEW002 11/11 A3028 RMK AO2 SLP254 T01110111 53009
Observed Flight Rules
Dec-17 @ 14:53 UTC (24 minutes ago) Marginal Visual Flight Rules
Visibility Clouds Conditions
4 miles
  • Few at 200' AGL
  • Mist
Temperatures Readings
Current 11°C / 52°F
Dewpoint 11°C / 52°F
Humidity 100%
Altimeter 30.28" Hg
Pressure 1025.4 hPa
Elevation 6
METAR KLBX 171453Z AUTO 00000KT 4SM BR FEW002 11/11 A3028 RMK AO2 SLP254 T01110111 53009
Observed Flight Rules
Dec-17 @ 14:53 UTC
(24 minutes ago)
MVFR
Clouds
  • Few at 200' AGL
Conditions
  • Mist
Temperature Dewpoint
11°C / 52°F 11°C / 52°F
Humidity Altimeter Pressure
100% 30.28" Hg 1025.4 hPa